createdAt,value
2018-06-04T00:00:43.974Z,1028.96
2018-06-04T00:01:43.976Z,1028.93
2018-06-04T00:02:43.967Z,1028.96
2018-06-04T00:03:43.969Z,1028.96
2018-06-04T00:04:43.966Z,1028.96
2018-06-04T00:05:43.965Z,1028.98
2018-06-04T00:06:43.953Z,1028.95
2018-06-04T00:07:43.948Z,1028.95
2018-06-04T00:08:43.950Z,1028.94
2018-06-04T00:09:43.951Z,1028.93
2018-06-04T00:10:43.942Z,1028.93
2018-06-04T00:11:43.933Z,1028.94
2018-06-04T00:12:43.937Z,1028.91
2018-06-04T00:13:43.926Z,1028.91
2018-06-04T00:14:43.928Z,1028.92
2018-06-04T00:15:43.920Z,1028.92
2018-06-04T00:16:43.921Z,1028.95
2018-06-04T00:17:43.912Z,1028.96
2018-06-04T00:18:43.912Z,1028.93
2018-06-04T00:19:43.903Z,1028.96
2018-06-04T00:20:43.900Z,1028.97
2018-06-04T00:21:43.900Z,1028.94
2018-06-04T00:22:43.897Z,1028.95
2018-06-04T00:23:43.889Z,1028.96
2018-06-04T00:24:43.895Z,1028.92
2018-06-04T00:25:43.887Z,1028.95
2018-06-04T00:26:43.882Z,1028.92
2018-06-04T00:27:43.872Z,1028.89
2018-06-04T00:28:43.876Z,1028.89
2018-06-04T00:29:43.865Z,1028.87
2018-06-04T00:30:43.866Z,1028.9
2018-06-04T00:31:43.858Z,1028.88
2018-06-04T00:32:43.864Z,1028.88
2018-06-04T00:33:43.849Z,1028.9
2018-06-04T00:34:43.852Z,1028.91
2018-06-04T00:35:43.842Z,1028.88
2018-06-04T00:36:43.840Z,1028.88
2018-06-04T00:37:43.834Z,1028.88
2018-06-04T00:38:43.836Z,1028.88
2018-06-04T00:39:43.833Z,1028.83
2018-06-04T00:40:43.822Z,1028.82
2018-06-04T00:41:43.819Z,1028.79
2018-06-04T00:42:43.816Z,1028.79
2018-06-04T00:43:43.817Z,1028.77
2018-06-04T00:44:43.807Z,1028.67
2018-06-04T00:45:43.810Z,1028.69
2018-06-04T00:46:43.801Z,1028.69
2018-06-04T00:47:43.802Z,1028.68
2018-06-04T00:48:43.794Z,1028.64
2018-06-04T00:49:43.789Z,1028.59
2018-06-04T00:50:43.791Z,1028.52
2018-06-04T00:51:43.781Z,1028.51
2018-06-04T00:52:43.781Z,1028.49
2018-06-04T00:53:43.774Z,1028.43
2018-06-04T00:54:43.775Z,1028.4
2018-06-04T00:55:43.771Z,1028.38
2018-06-04T00:56:43.763Z,1028.36
2018-06-04T00:57:43.759Z,1028.35
2018-06-04T00:58:43.756Z,1028.36
2018-06-04T00:59:43.756Z,1028.34
2018-06-04T01:00:43.747Z,1028.32
2018-06-04T01:01:43.750Z,1028.3
2018-06-04T01:02:43.741Z,1028.3
2018-06-04T01:03:43.742Z,1028.3
2018-06-04T01:04:43.734Z,1028.22
2018-06-04T01:05:43.735Z,1028.24
2018-06-04T01:06:43.726Z,1028.26
2018-06-04T01:07:43.730Z,1028.27
2018-06-04T01:08:43.725Z,1028.25
2018-06-04T01:09:43.725Z,1028.23
2018-06-04T01:10:43.712Z,1028.25
2018-06-04T01:11:43.709Z,1028.23
2018-06-04T01:12:43.710Z,1028.23
2018-06-04T01:13:43.707Z,1028.22
2018-06-04T01:14:43.698Z,1028.22
2018-06-04T01:15:43.701Z,1028.2
2018-06-04T01:16:43.716Z,1028.15
2018-06-04T01:17:43.693Z,1028.15
2018-06-04T01:18:43.702Z,1028.12
2018-06-04T01:19:43.686Z,1028.11
2018-06-04T01:20:43.689Z,1028.06
2018-06-04T01:21:43.687Z,1028.03
2018-06-04T01:22:43.676Z,1028.03
2018-06-04T01:23:43.673Z,1028
2018-06-04T01:24:43.670Z,1027.95
2018-06-04T01:25:43.673Z,1027.92
2018-06-04T01:26:43.658Z,1027.89
2018-06-04T01:27:43.656Z,1027.91
2018-06-04T01:28:43.657Z,1027.88
2018-06-04T01:29:43.655Z,1027.89
2018-06-04T01:30:43.651Z,1027.87
2018-06-04T01:31:43.641Z,1027.82
2018-06-04T01:32:43.644Z,1027.83
2018-06-04T01:33:43.635Z,1027.83
2018-06-04T01:34:43.638Z,1027.79
2018-06-04T01:35:43.636Z,1027.77
2018-06-04T01:36:43.631Z,1027.74
2018-06-04T01:37:43.623Z,1027.74
2018-06-04T01:38:43.628Z,1027.72
2018-06-04T01:39:43.616Z,1027.68
2018-06-04T01:40:43.619Z,1027.69
2018-06-04T01:41:43.640Z,1027.63
2018-06-04T01:42:43.607Z,1027.64
2018-06-04T01:43:43.604Z,1027.64
2018-06-04T01:44:43.607Z,1027.6
2018-06-04T01:45:43.605Z,1027.59
2018-06-04T01:46:43.600Z,1027.57
2018-06-04T01:47:43.592Z,1027.58
2018-06-04T01:48:43.594Z,1027.58
2018-06-04T01:49:43.586Z,1027.61
2018-06-04T01:50:43.588Z,1027.6
2018-06-04T01:51:43.584Z,1027.6
2018-06-04T01:52:43.589Z,1027.59
2018-06-04T01:53:43.574Z,1027.62
2018-06-04T01:54:43.577Z,1027.58
2018-06-04T01:55:43.568Z,1027.62
2018-06-04T01:56:43.565Z,1027.61
2018-06-04T01:57:43.561Z,1027.61
2018-06-04T01:58:43.563Z,1027.62
2018-06-04T01:59:43.561Z,1027.63
2018-06-04T02:00:43.554Z,1027.59
2018-06-04T02:01:43.549Z,1027.58
2018-06-04T02:02:43.550Z,1027.63
2018-06-04T02:03:43.549Z,1027.61
2018-06-04T02:04:43.540Z,1027.64
2018-06-04T02:05:43.538Z,1027.69
2018-06-04T02:06:43.540Z,1027.71
2018-06-04T02:07:43.532Z,1027.77
2018-06-04T02:08:43.533Z,1027.83
2018-06-04T02:09:43.526Z,1027.83
2018-06-04T02:10:43.527Z,1027.92
2018-06-04T02:11:43.526Z,1027.91
2018-06-04T02:12:43.517Z,1028
2018-06-04T02:13:43.518Z,1027.99
2018-06-04T02:14:43.517Z,1028.03
2018-06-04T02:15:43.515Z,1028.02
2018-06-04T02:16:43.505Z,1028.05
2018-06-04T02:17:43.504Z,1028.05
2018-06-04T02:18:43.499Z,1028.04
2018-06-04T02:19:43.500Z,1028.03
2018-06-04T02:20:43.492Z,1028.05
2018-06-04T02:21:43.496Z,1028.05
2018-06-04T02:22:43.486Z,1028.06
2018-06-04T02:23:43.493Z,1028.02
2018-06-04T02:24:43.487Z,1028.01
2018-06-04T02:25:43.481Z,1028.06
2018-06-04T02:26:43.473Z,1028.04
2018-06-04T02:27:43.475Z,1028.06
2018-06-04T02:28:43.471Z,1028.03
2018-06-04T02:29:43.468Z,1028.02
2018-06-04T02:30:43.460Z,1028.03
2018-06-04T02:31:43.462Z,1028.01
2018-06-04T02:32:43.453Z,1028.05
2018-06-04T02:33:43.453Z,1028.05
2018-06-04T02:34:43.447Z,1028.04
2018-06-04T02:35:43.449Z,1028.05
2018-06-04T02:36:43.441Z,1028.05
2018-06-04T02:37:43.442Z,1028.03
2018-06-04T02:38:43.434Z,1028.01
2018-06-04T02:39:43.435Z,1028.06
2018-06-04T02:40:43.427Z,1028.08
2018-06-04T02:41:43.428Z,1028.08
2018-06-04T02:42:43.420Z,1028.07
2018-06-04T02:43:43.435Z,1028.08
2018-06-04T02:44:43.413Z,1028.13
2018-06-04T02:45:43.410Z,1028.13
2018-06-04T02:46:43.456Z,1028.08
2018-06-04T02:47:43.407Z,1028.1
2018-06-04T02:48:43.402Z,1028.11
2018-06-04T02:49:43.396Z,1028.12
2018-06-04T02:50:43.392Z,1028.1
2018-06-04T02:51:43.394Z,1028.11
2018-06-04T02:52:43.391Z,1028.07
2018-06-04T02:53:43.386Z,1028.08
2018-06-04T02:54:43.378Z,1028.12
2018-06-04T02:55:43.387Z,1028.14
2018-06-04T02:56:43.372Z,1028.12
2018-06-04T02:57:43.369Z,1028.12
2018-06-04T02:58:43.371Z,1028.13
2018-06-04T02:59:43.363Z,1028.17
2018-06-04T03:00:43.358Z,1028.17
2018-06-04T03:01:43.355Z,1028.19
2018-06-04T03:02:43.357Z,1028.19
2018-06-04T03:03:43.353Z,1028.17
2018-06-04T03:04:43.344Z,1028.19
2018-06-04T03:05:43.343Z,1028.16
2018-06-04T03:06:43.336Z,1028.15
2018-06-04T03:07:43.338Z,1028.14
2018-06-04T03:08:43.331Z,1028.15
2018-06-04T03:09:43.331Z,1028.1
2018-06-04T03:10:43.321Z,1028.11
2018-06-04T03:11:43.324Z,1028.1
2018-06-04T03:12:43.315Z,1028.12
2018-06-04T03:13:43.320Z,1028.07
2018-06-04T03:14:43.315Z,1028.05
2018-06-04T03:15:43.309Z,1028.03
2018-06-04T03:16:43.305Z,1027.99
2018-06-04T03:17:43.301Z,1027.98
2018-06-04T03:18:43.292Z,1027.93
2018-06-04T03:19:43.289Z,1027.87
2018-06-04T03:20:43.291Z,1027.85
2018-06-04T03:21:43.287Z,1027.83
2018-06-04T03:22:43.278Z,1027.81
2018-06-04T03:23:43.280Z,1027.73
2018-06-04T03:24:43.271Z,1027.72
2018-06-04T03:25:43.272Z,1027.7
2018-06-04T03:26:43.264Z,1027.64
2018-06-04T03:27:43.265Z,1027.61
2018-06-04T03:28:43.256Z,1027.59
2018-06-04T03:29:43.258Z,1027.51
2018-06-04T03:30:43.250Z,1027.49
2018-06-04T03:31:43.253Z,1027.44
2018-06-04T03:32:43.251Z,1027.44
2018-06-04T03:33:43.245Z,1027.4
2018-06-04T03:34:43.235Z,1027.35
2018-06-04T03:35:43.233Z,1027.32
2018-06-04T03:36:43.234Z,1027.31
2018-06-04T03:37:43.232Z,1027.3
2018-06-04T03:38:43.229Z,1027.24
2018-06-04T03:39:43.219Z,1027.16
2018-06-04T03:40:43.226Z,1027.07
2018-06-04T03:41:43.219Z,1026.92
2018-06-04T03:42:43.216Z,1026.9
2018-06-04T03:43:43.207Z,1026.7
2018-06-04T03:44:43.209Z,1026.6
2018-06-04T03:45:43.203Z,1026.54
2018-06-04T03:46:43.205Z,1026.41
2018-06-04T03:47:43.195Z,1026.33
2018-06-04T03:48:43.198Z,1026.23
2018-06-04T03:49:43.193Z,1026.15
2018-06-04T03:50:43.186Z,1026.03
2018-06-04T03:51:43.183Z,1025.96
2018-06-04T03:52:43.183Z,1025.89
2018-06-04T03:53:43.178Z,1025.77
2018-06-04T03:54:43.175Z,1025.7
2018-06-04T03:55:43.174Z,1025.6
2018-06-04T03:56:43.178Z,1025.55
2018-06-04T03:57:43.171Z,1025.45
2018-06-04T03:58:43.168Z,1025.4
2018-06-04T03:59:43.166Z,1025.27
2018-06-04T04:00:43.166Z,1025.16
2018-06-04T04:01:43.166Z,1025.08
2018-06-04T04:02:43.163Z,1025.02
2018-06-04T04:03:43.161Z,1024.91
2018-06-04T04:04:43.161Z,1024.81
2018-06-04T04:05:43.164Z,1024.71
2018-06-04T04:06:43.163Z,1024.66
2018-06-04T04:07:43.161Z,1024.58
2018-06-04T04:08:43.159Z,1024.5
2018-06-04T04:09:43.157Z,1024.42
2018-06-04T04:10:43.158Z,1024.35
2018-06-04T04:11:43.158Z,1024.21
2018-06-04T04:12:43.160Z,1024.1
2018-06-04T04:13:43.157Z,1023.94
2018-06-04T04:14:43.159Z,1023.89
2018-06-04T04:15:43.161Z,1023.78
2018-06-04T04:16:43.160Z,1023.7
2018-06-04T04:17:43.160Z,1023.6
2018-06-04T04:18:43.162Z,1023.53
2018-06-04T04:19:43.164Z,1023.47
2018-06-04T04:20:43.166Z,1023.43
2018-06-04T04:21:43.168Z,1023.36
2018-06-04T04:22:43.177Z,1023.27
2018-06-04T04:23:43.181Z,1023.22
2018-06-04T04:24:43.177Z,1023.15
2018-06-04T04:25:43.180Z,1023.08
2018-06-04T04:26:43.182Z,1022.94
2018-06-04T04:27:43.236Z,1022.89
2018-06-04T04:28:43.188Z,1022.84
2018-06-04T04:29:43.197Z,1022.76
2018-06-04T04:30:43.199Z,1022.61
2018-06-04T04:31:43.205Z,1022.55
2018-06-04T04:32:43.204Z,1022.48
2018-06-04T04:33:43.214Z,1022.41
2018-06-04T04:34:43.212Z,1022.37
2018-06-04T04:35:43.223Z,1022.26
2018-06-04T04:36:43.221Z,1022.16
2018-06-04T04:37:43.249Z,1022.1
2018-06-04T04:38:43.229Z,1022.07
2018-06-04T04:39:43.236Z,1022
2018-06-04T04:40:43.242Z,1021.94
2018-06-04T04:41:43.245Z,1021.87
2018-06-04T04:42:43.252Z,1021.83
2018-06-04T04:43:43.257Z,1021.74
2018-06-04T04:44:43.264Z,1021.7
2018-06-04T04:45:43.268Z,1021.67
2018-06-04T04:46:43.339Z,1021.6
2018-06-04T04:47:43.289Z,1021.54
2018-06-04T04:48:43.291Z,1021.47
2018-06-04T04:49:43.303Z,1021.47
2018-06-04T04:50:43.304Z,1021.47
2018-06-04T04:51:43.321Z,1021.42
2018-06-04T04:52:56.056Z,1021.34
2018-06-04T04:53:43.332Z,1021.31
2018-06-04T04:54:43.336Z,1021.3
2018-06-04T04:55:43.341Z,1021.28
2018-06-04T04:56:43.353Z,1021.28
2018-06-04T04:57:43.365Z,1021.27
2018-06-04T04:58:43.368Z,1021.24
2018-06-04T04:59:43.420Z,1021.2
2018-06-04T05:00:43.386Z,1021.19
2018-06-04T05:01:43.388Z,1021.13
2018-06-04T05:02:43.409Z,1021.05
2018-06-04T05:03:43.404Z,1020.97
2018-06-04T05:04:43.418Z,1020.95
2018-06-04T05:05:43.427Z,1020.86
2018-06-04T05:06:43.431Z,1020.8
2018-06-04T05:07:43.444Z,1020.8
2018-06-04T05:08:43.453Z,1020.76
2018-06-04T05:09:43.461Z,1020.75
2018-06-04T05:10:43.465Z,1020.8
2018-06-04T05:11:43.473Z,1020.76
2018-06-04T05:12:43.488Z,1020.75
2018-06-04T05:13:43.498Z,1020.7
2018-06-04T05:14:43.506Z,1020.65
2018-06-04T05:15:43.511Z,1020.7
2018-06-04T05:16:43.527Z,1020.73
2018-06-04T05:17:43.531Z,1020.72
2018-06-04T05:18:43.557Z,1020.7
2018-06-04T05:19:43.567Z,1020.64
2018-06-04T05:20:43.581Z,1020.55
2018-06-04T05:21:43.575Z,1020.57
2018-06-04T05:22:43.588Z,1020.46
2018-06-04T05:24:43.599Z,1020.42
2018-06-04T05:25:43.614Z,1020.39
2018-06-04T05:26:43.624Z,1020.44
2018-06-04T05:27:43.635Z,1020.45
2018-06-04T05:28:43.640Z,1020.45
2018-06-04T05:29:43.657Z,1020.43
2018-06-04T05:30:43.671Z,1020.36
2018-06-04T05:31:43.678Z,1020.33
2018-06-04T05:32:43.687Z,1020.3
2018-06-04T05:33:43.693Z,1020.23
2018-06-04T05:34:43.709Z,1020.22
2018-06-04T05:35:43.715Z,1020.18
2018-06-04T05:36:43.730Z,1020.13
2018-06-04T05:37:43.741Z,1020.13
2018-06-04T05:38:43.752Z,1020.09
2018-06-04T05:39:43.758Z,1020.12
2018-06-04T05:40:43.768Z,1020.09
2018-06-04T05:41:43.786Z,1020.11
2018-06-04T05:42:43.799Z,1020.12
2018-06-04T05:43:43.809Z,1020.08
2018-06-04T05:44:43.818Z,1020.05
2018-06-04T05:45:43.831Z,1019.99
2018-06-04T05:46:43.840Z,1019.89
2018-06-04T05:47:43.855Z,1019.81
2018-06-04T05:48:43.861Z,1019.77
2018-06-04T05:49:43.878Z,1019.81
2018-06-04T05:50:43.883Z,1019.8
2018-06-04T05:51:43.900Z,1019.76
2018-06-04T05:52:43.916Z,1019.73
2018-06-04T05:53:43.929Z,1019.65
2018-06-04T05:54:43.932Z,1019.58
2018-06-04T05:55:43.948Z,1019.59
2018-06-04T05:56:43.959Z,1019.6
2018-06-04T05:57:43.973Z,1019.56
2018-06-04T05:58:43.985Z,1019.5
2018-06-04T05:59:43.998Z,1019.42
2018-06-04T06:00:44.011Z,1019.38
2018-06-04T06:01:44.045Z,1019.39
2018-06-04T06:03:44.043Z,1019.25
2018-06-04T06:04:44.061Z,1019.14
2018-06-04T06:05:44.075Z,1019.04
2018-06-04T06:06:44.089Z,1018.95
2018-06-04T06:07:44.097Z,1018.83
2018-06-04T06:08:44.115Z,1018.78
2018-06-04T06:09:44.128Z,1018.7
2018-06-04T06:10:44.137Z,1018.63
2018-06-04T06:13:44.178Z,1018.56
2018-06-04T06:15:03.394Z,1018.63
2018-06-04T06:15:44.212Z,1018.23
2018-06-04T06:18:44.253Z,1019.11
2018-06-04T06:19:44.267Z,1019.79
2018-06-04T06:20:44.280Z,1019.97
2018-06-04T06:21:57.020Z,1019.59
2018-06-04T06:22:44.307Z,1019.43
2018-06-04T06:23:44.316Z,1019.45
2018-06-04T06:24:44.333Z,1019.83
2018-06-04T06:25:44.341Z,1019.65
2018-06-04T06:26:44.355Z,1019.75
2018-06-04T06:27:44.372Z,1020
2018-06-04T06:28:44.385Z,1020.34
2018-06-04T06:29:44.393Z,1020.26
2018-06-04T06:30:44.409Z,1019.87
2018-06-04T06:31:44.418Z,1019.62
2018-06-04T06:32:44.436Z,1019.36
2018-06-04T06:33:44.443Z,1019.28
2018-06-04T06:34:44.462Z,1019.1
2018-06-04T06:35:44.468Z,1018.95
2018-06-04T06:36:44.487Z,1018.74
2018-06-04T06:37:44.494Z,1018.65
2018-06-04T06:38:44.512Z,1018.66
2018-06-04T06:39:44.519Z,1018.58
2018-06-04T06:40:44.538Z,1018.63
2018-06-04T06:41:44.561Z,1018.45
2018-06-04T06:42:44.565Z,1018.6
2018-06-04T06:43:44.573Z,1018.52
2018-06-04T06:44:44.586Z,1018.37
2018-06-04T06:45:44.605Z,1018.34
2018-06-04T06:46:44.664Z,1018.16
2018-06-04T06:47:44.632Z,1018.11
2018-06-04T06:48:44.645Z,1018.07
2018-06-04T06:49:44.658Z,1018.01
2018-06-04T06:50:44.678Z,1017.96
2018-06-04T06:51:44.688Z,1017.9
2018-06-04T06:52:44.710Z,1017.84
2018-06-04T06:53:44.709Z,1017.77
2018-06-04T06:54:44.732Z,1017.72
2018-06-04T06:55:44.739Z,1017.66
2018-06-04T06:56:44.762Z,1017.64
2018-06-04T06:57:44.773Z,1017.62
2018-06-04T06:58:44.787Z,1017.56
2018-06-04T06:59:44.804Z,1017.51
2018-06-04T07:00:44.811Z,1017.53
2018-06-04T07:01:44.832Z,1017.49
2018-06-04T07:02:44.848Z,1017.46
2018-06-04T07:03:44.865Z,1017.42
2018-06-04T07:04:44.879Z,1017.37
2018-06-04T07:05:44.894Z,1017.07
2018-06-04T07:06:44.902Z,1017.78
2018-06-04T07:07:44.924Z,1017.68
2018-06-04T07:08:44.934Z,1017.47
2018-06-04T07:09:44.953Z,1017.89
2018-06-04T07:10:44.968Z,1017.75
2018-06-04T07:11:44.984Z,1017.7
2018-06-04T07:12:44.995Z,1017.63
2018-06-04T07:13:45.015Z,1017.62
2018-06-04T07:14:45.028Z,1017.58
2018-06-04T07:15:45.046Z,1017.54
2018-06-04T07:16:45.057Z,1017.6
2018-06-04T07:17:45.077Z,1017.7
2018-06-04T07:18:45.092Z,1017.85
2018-06-04T07:19:45.108Z,1017.88
2018-06-04T07:20:45.117Z,1017.9
2018-06-04T07:21:45.140Z,1017.99
2018-06-04T07:22:45.150Z,1018.07
2018-06-04T07:23:45.169Z,1018.1
2018-06-04T07:24:45.189Z,1018.19
2018-06-04T07:25:45.205Z,1018.2
2018-06-04T07:26:45.270Z,1018.19
2018-06-04T07:27:45.231Z,1018.04
2018-06-04T07:28:45.242Z,1018.03
2018-06-04T07:29:45.261Z,1018.05
2018-06-04T07:30:45.277Z,1017.66
2018-06-04T07:31:45.301Z,1018.16
2018-06-04T07:32:45.308Z,1018.49
2018-06-04T07:33:45.318Z,1018.45
2018-06-04T07:34:45.376Z,1018.46
2018-06-04T07:35:45.350Z,1018.54
2018-06-04T07:36:45.373Z,1017.97
2018-06-04T07:37:45.382Z,1019.24
2018-06-04T07:38:45.401Z,1018.97
2018-06-04T07:39:45.410Z,1018.74
2018-06-04T07:40:45.430Z,1018.98
2018-06-04T07:41:45.442Z,1018.67
2018-06-04T07:42:45.455Z,1018.4
2018-06-04T07:43:45.475Z,1018.17
2018-06-04T07:44:45.483Z,1018.01
2018-06-04T07:45:45.499Z,1017.82
2018-06-04T07:46:45.514Z,1017.85
2018-06-04T07:47:45.533Z,1017.66
2018-06-04T07:48:45.547Z,1018.55
2018-06-04T07:49:45.568Z,1018.4
2018-06-04T07:50:45.573Z,1017.71
2018-06-04T07:51:45.587Z,1018.48
2018-06-04T07:52:45.609Z,1018.38
2018-06-04T07:53:45.615Z,1018.28
2018-06-04T07:54:45.635Z,1017.95
2018-06-04T07:55:45.646Z,1017.83
2018-06-04T07:56:45.666Z,1017.63
2018-06-04T07:57:45.674Z,1017.4
2018-06-04T07:58:45.694Z,1017.37
2018-06-04T07:59:45.710Z,1017.41
2018-06-04T08:00:45.780Z,1017.31
2018-06-04T08:01:45.740Z,1018.25
2018-06-04T08:02:45.760Z,1018.18
2018-06-04T08:03:45.765Z,1018.12
2018-06-04T08:04:45.779Z,1018.13
2018-06-04T08:05:45.801Z,1017.97
2018-06-04T08:06:45.814Z,1017.83
2018-06-04T08:07:45.825Z,1017.88
2018-06-04T08:08:45.850Z,1018.33
2018-06-04T08:09:45.853Z,1018.87
2018-06-04T08:10:45.874Z,1018.51
2018-06-04T08:11:45.881Z,1018.19
2018-06-04T08:12:45.901Z,1018.33
2018-06-04T08:13:45.910Z,1018.88
2018-06-04T08:14:45.929Z,1019.36
2018-06-04T08:15:45.937Z,1019.82
2018-06-04T08:16:45.956Z,1019.6
2018-06-04T08:17:45.972Z,1019.1
2018-06-04T08:18:45.988Z,1018.66
2018-06-04T08:19:45.990Z,1018.24
2018-06-04T08:20:46.005Z,1017.92
2018-06-04T08:21:46.023Z,1017.74
2018-06-04T08:22:46.040Z,1017.47
2018-06-04T08:23:46.056Z,1017.66
2018-06-04T08:24:46.057Z,1017.43
2018-06-04T08:25:46.077Z,1017.17
2018-06-04T08:26:46.093Z,1017.05
2018-06-04T08:27:46.105Z,1016.89
2018-06-04T08:28:46.112Z,1016.84
2018-06-04T08:29:46.131Z,1016.72
2018-06-04T08:30:46.141Z,1016.99
2018-06-04T08:31:46.170Z,1017.52
2018-06-04T08:32:46.169Z,1018.23
2018-06-04T08:33:46.190Z,1018.77
2018-06-04T08:34:46.220Z,1019.23
2018-06-04T08:35:46.210Z,1019.63
2018-06-04T08:36:46.225Z,1019.95
2018-06-04T08:37:46.259Z,1020.17
2018-06-04T08:38:46.255Z,1020.32
2018-06-04T08:39:46.273Z,1019.67
2018-06-04T08:40:46.274Z,1019.12
2018-06-04T08:41:46.293Z,1018.78
2018-06-04T08:42:46.305Z,1018.43
2018-06-04T08:43:46.322Z,1018.15
2018-06-04T08:44:46.324Z,1017.87
2018-06-04T08:45:46.413Z,1017.63
2018-06-04T08:46:46.354Z,1017.54
2018-06-04T08:47:46.388Z,1017.48
2018-06-04T08:48:46.377Z,1017.43
2018-06-04T08:49:46.389Z,1017.33
2018-06-04T08:50:46.409Z,1017.5
2018-06-04T08:51:46.427Z,1018.49
2018-06-04T08:52:46.440Z,1019.2
2018-06-04T08:53:46.441Z,1019.79
2018-06-04T08:54:46.453Z,1020.2
2018-06-04T08:55:46.473Z,1020.63
2018-06-04T08:56:46.483Z,1020.94
2018-06-04T08:57:46.489Z,1021.11
2018-06-04T08:58:46.501Z,1021.27
2018-06-04T08:59:46.518Z,1021.4
2018-06-04T09:00:46.526Z,1021.41
2018-06-04T09:01:46.561Z,1021.46
2018-06-04T09:02:46.566Z,1021.49
2018-06-04T09:03:46.561Z,1021.49
2018-06-04T09:04:46.568Z,1021.49
2018-06-04T09:05:46.577Z,1021.44
2018-06-04T09:06:46.588Z,1021.4
2018-06-04T09:07:46.821Z,1021.36
2018-06-04T09:08:46.611Z,1021.28
2018-06-04T09:09:46.648Z,1021.26
2018-06-04T09:10:46.627Z,1021.33
2018-06-04T09:11:46.638Z,1021.57
2018-06-04T09:12:46.651Z,1021.82
2018-06-04T09:13:46.655Z,1022.08
2018-06-04T09:14:46.671Z,1022.38
2018-06-04T09:15:46.740Z,1022.6
2018-06-04T09:16:46.694Z,1022.74
2018-06-04T09:17:46.693Z,1022.82
2018-06-04T09:18:46.708Z,1022.86
2018-06-04T09:19:46.711Z,1022.91
2018-06-04T09:20:46.738Z,1022.92
2018-06-04T09:21:46.764Z,1022.9
2018-06-04T09:22:46.741Z,1022.87
2018-06-04T09:23:46.745Z,1022.84
2018-06-04T09:24:46.757Z,1022.9
2018-06-04T09:25:46.760Z,1023
2018-06-04T09:26:46.772Z,1023.05
2018-06-04T09:27:46.779Z,1022.99
2018-06-04T09:28:46.803Z,1022.99
2018-06-04T09:29:46.799Z,1023
2018-06-04T09:30:46.804Z,1022.95
2018-06-04T09:31:46.822Z,1022.91
2018-06-04T09:32:46.834Z,1022.87
2018-06-04T09:33:46.828Z,1022.87
2018-06-04T09:34:46.833Z,1022.9
2018-06-04T09:35:46.843Z,1022.9
2018-06-04T09:36:46.854Z,1022.87
2018-06-04T09:37:46.856Z,1022.91
2018-06-04T09:38:46.855Z,1022.92
2018-06-04T09:39:46.889Z,1022.9
2018-06-04T09:40:46.875Z,1022.81
2018-06-04T09:41:46.878Z,1022.74
2018-06-04T09:42:46.883Z,1022.68
2018-06-04T09:43:46.942Z,1022.65
2018-06-04T09:44:46.903Z,1022.67
2018-06-04T09:45:46.922Z,1022.72
2018-06-04T09:46:46.916Z,1022.73
2018-06-04T09:47:46.922Z,1022.66
2018-06-04T09:48:46.929Z,1022.6
2018-06-04T09:49:46.931Z,1022.52
2018-06-04T09:50:46.939Z,1022.37
2018-06-04T09:51:46.950Z,1022.26
2018-06-04T09:52:46.957Z,1022.14
2018-06-04T09:53:47.008Z,1022.08
2018-06-04T09:54:46.969Z,1021.97
2018-06-04T09:55:46.978Z,1021.88
2018-06-04T09:56:46.985Z,1021.82
2018-06-04T09:57:46.988Z,1021.84
2018-06-04T09:58:46.994Z,1021.85
2018-06-04T09:59:47.000Z,1021.89
2018-06-04T10:00:47.017Z,1022.04
2018-06-04T10:01:47.016Z,1022.17
2018-06-04T10:02:47.032Z,1022.35
2018-06-04T10:03:47.029Z,1022.56
2018-06-04T10:04:47.079Z,1022.6
2018-06-04T10:05:47.049Z,1022.64
2018-06-04T10:06:47.057Z,1022.61
2018-06-04T10:07:47.057Z,1022.54
2018-06-04T10:08:47.072Z,1022.46
2018-06-04T10:09:47.080Z,1022.43
2018-06-04T10:10:47.093Z,1022.47
2018-06-04T10:11:47.098Z,1022.52
2018-06-04T10:12:47.093Z,1022.61
2018-06-04T10:13:47.133Z,1022.69
2018-06-04T10:14:47.126Z,1022.73
2018-06-04T10:15:47.113Z,1022.85
2018-06-04T10:16:47.136Z,1023
2018-06-04T10:17:47.127Z,1023.08
2018-06-04T10:18:47.137Z,1023.13
2018-06-04T10:19:47.140Z,1023.26
2018-06-04T10:20:47.149Z,1023.33
2018-06-04T10:21:47.165Z,1023.29
2018-06-04T10:22:47.163Z,1023.28
2018-06-04T10:23:47.164Z,1023.2
2018-06-04T10:24:47.175Z,1023.15
2018-06-04T10:25:47.189Z,1023.11
2018-06-04T10:26:47.186Z,1023.09
2018-06-04T10:27:47.215Z,1023.12
2018-06-04T10:28:47.197Z,1023.21
2018-06-04T10:29:47.222Z,1023.27
2018-06-04T10:30:47.210Z,1023.27
2018-06-04T10:31:47.216Z,1023.24
2018-06-04T10:32:47.216Z,1023.22
2018-06-04T10:33:47.230Z,1023.15
2018-06-04T10:34:47.227Z,1023.16
2018-06-04T10:35:47.238Z,1023.11
2018-06-04T10:36:47.237Z,1023.13
2018-06-04T10:37:47.247Z,1023.02
2018-06-04T10:38:47.249Z,1022.93
2018-06-04T10:39:47.265Z,1022.89
2018-06-04T10:40:47.275Z,1022.81
2018-06-04T10:41:47.270Z,1022.75
2018-06-04T10:42:47.275Z,1022.69
2018-06-04T10:43:47.274Z,1022.65
2018-06-04T10:44:47.280Z,1022.64
2018-06-04T10:45:47.302Z,1022.66
2018-06-04T10:46:47.305Z,1022.7
2018-06-04T10:47:47.301Z,1022.67
2018-06-04T10:48:47.302Z,1022.59
2018-06-04T10:49:47.312Z,1022.48
2018-06-04T10:50:47.316Z,1022.39
2018-06-04T10:51:47.340Z,1022.28
2018-06-04T10:52:47.331Z,1022.17
2018-06-04T10:53:47.337Z,1022.13
2018-06-04T10:54:47.335Z,1022.02
2018-06-04T10:55:47.348Z,1021.95
2018-06-04T10:56:47.359Z,1021.94
2018-06-04T10:57:47.361Z,1021.92
2018-06-04T10:58:47.362Z,1021.87
2018-06-04T10:59:47.371Z,1021.88
2018-06-04T11:00:47.376Z,1021.86
2018-06-04T11:01:47.382Z,1021.95
2018-06-04T11:02:47.386Z,1021.9
2018-06-04T11:03:47.389Z,1021.89
2018-06-04T11:04:47.426Z,1021.84
2018-06-04T11:05:47.412Z,1021.83
2018-06-04T11:06:47.411Z,1021.78
2018-06-04T11:07:47.417Z,1021.68
2018-06-04T11:08:48.835Z,1021.62
2018-06-04T11:09:47.433Z,1021.56
2018-06-04T11:10:47.431Z,1021.54
2018-06-04T11:11:47.443Z,1021.48
2018-06-04T11:12:47.443Z,1021.51
2018-06-04T11:13:47.450Z,1021.52
2018-06-04T11:14:47.464Z,1021.59
2018-06-04T11:15:47.468Z,1021.64
2018-06-04T11:16:47.475Z,1021.68
2018-06-04T11:17:47.476Z,1021.71
2018-06-04T11:18:47.491Z,1021.71
2018-06-04T11:19:47.494Z,1021.73
2018-06-04T11:20:47.497Z,1021.73
2018-06-04T11:21:47.507Z,1021.73
2018-06-04T11:22:47.511Z,1021.71
2018-06-04T11:23:47.522Z,1021.71
2018-06-04T11:24:47.521Z,1021.73
2018-06-04T11:25:47.657Z,1021.77
2018-06-04T11:26:47.538Z,1021.77
2018-06-04T11:27:47.543Z,1021.76
2018-06-04T11:28:47.546Z,1021.75
2018-06-04T11:29:47.554Z,1021.72
2018-06-04T11:30:47.560Z,1021.72
2018-06-04T11:31:47.573Z,1021.71
2018-06-04T11:32:47.571Z,1021.71
2018-06-04T11:33:47.595Z,1021.68
2018-06-04T11:34:47.590Z,1021.65
2018-06-04T11:35:47.597Z,1021.61
2018-06-04T11:36:47.598Z,1021.68
2018-06-04T11:37:47.610Z,1021.65
2018-06-04T11:38:47.614Z,1021.69
2018-06-04T11:39:47.622Z,1021.75
2018-06-04T11:40:47.627Z,1021.77
2018-06-04T11:41:47.635Z,1021.79
2018-06-04T11:42:47.652Z,1021.86
2018-06-04T11:43:47.669Z,1021.87
2018-06-04T11:44:47.649Z,1021.92
2018-06-04T11:45:47.654Z,1021.89
2018-06-04T11:46:47.661Z,1021.79
2018-06-04T11:47:47.672Z,1021.76
2018-06-04T11:48:47.678Z,1021.75
2018-06-04T11:49:47.684Z,1021.83
2018-06-04T11:50:47.685Z,1021.81
2018-06-04T11:51:47.691Z,1021.86
2018-06-04T11:52:47.706Z,1021.87
2018-06-04T11:53:47.703Z,1021.88
2018-06-04T11:54:47.715Z,1021.89
2018-06-04T11:55:47.717Z,1021.85
2018-06-04T11:56:47.792Z,1021.81
2018-06-04T11:57:47.728Z,1021.75
2018-06-04T11:58:47.784Z,1021.75
2018-06-04T11:59:47.744Z,1021.75
2018-06-04T12:00:47.752Z,1021.73
2018-06-04T12:01:47.750Z,1021.79
2018-06-04T12:02:47.756Z,1021.75
2018-06-04T12:03:47.769Z,1021.76
2018-06-04T12:04:47.786Z,1021.84
2018-06-04T12:05:47.778Z,1021.79
2018-06-04T12:06:47.783Z,1021.86
2018-06-04T12:07:47.788Z,1021.99
2018-06-04T12:08:47.800Z,1021.99
2018-06-04T12:09:47.797Z,1022.04
2018-06-04T12:10:47.808Z,1021.98
2018-06-04T12:11:47.855Z,1021.88
2018-06-04T12:12:47.819Z,1021.75
2018-06-04T12:13:47.822Z,1021.67
2018-06-04T12:14:47.831Z,1021.67